Latest Weather Observations for Yulara

IDD60801

Issued at 8:31 pm CST Wednesday 10 February 2016 (issued every 30 minutes, with the page automatically refreshed every 10 minutes)

About weather observations | Map of weather stations | Latest weather observations for NT | Other Formats
Station Details ID: 015635 Name: YULARA AIRPORT Lat: -25.19 Lon: 130.97 Height: 492.0 m
Data from the previous 72 hours. | See also: Recent months at Yulara
Date/Time
CST
Temp
°C
App
Temp
°C
Dew
Point
Rel
Hum
%
Delta-T
°C
Wind Press
QNH
hPa
Press
MSL
hPa
Rain
since 9 am
mm
Dir
 
Spd
km/h
Gust
km/h
Spd
kts
Gust
kts
10/08:30pm 33.5 29.6 1.3 13 16.5 SSE 11 15 6 8 1012.3 1008.6 0.0
10/08:00pm 35.4 30.3 0.5 11 17.8 SE 17 22 9 12 1012.0 1008.3 0.0
10/07:30pm 36.5 31.3 0.0 10 18.6 SSE 17 24 9 13 1011.7 1007.9 0.0
10/07:00pm 38.2 32.0 -0.2 9 19.7 SE 22 30 12 16 1011.2 1007.4 0.0
10/06:30pm 38.7 32.9 0.2 9 20.0 SSE 20 32 11 17 1010.9 1007.1 0.0
10/06:00pm 38.7 32.9 0.2 9 20.0 SE 20 33 11 18 1010.8 1007.0 0.0
10/05:30pm 38.6 32.1 0.1 9 19.9 SE 24 33 13 18 1010.8 1007.0 0.0
10/05:00pm 38.7 34.5 1.6 10 19.6 SSE 13 24 7 13 1010.8 1007.0 0.0
10/04:30pm 39.3 34.8 2.1 10 19.9 SE 15 24 8 13 1011.0 1007.2 0.0
10/04:00pm 38.7 32.0 1.6 10 19.6 SSE 26 41 14 22 1011.3 1007.5 0.0
10/03:30pm 39.5 34.0 0.8 9 20.3 SSE 19 32 10 17 1011.5 1007.7 0.0
10/03:00pm 38.8 33.3 1.7 10 19.7 SSE 20 41 11 22 1011.7 1007.9 0.0
10/02:30pm 38.4 33.4 1.4 10 19.5 SSE 17 33 9 18 1012.1 1008.4 0.0
10/02:00pm 37.6 34.8 3.4 12 18.5 S 7 17 4 9 1012.8 1009.0 0.0
10/01:30pm 37.9 32.7 2.4 11 18.9 SE 19 39 10 21 1013.2 1009.4 0.0
10/01:00pm 37.9 32.5 2.4 11 18.9 SE 20 35 11 19 1013.6 1009.9 0.0
10/12:30pm 37.4 33.1 3.2 12 18.4 SE 15 28 8 15 1013.9 1010.2 0.0
10/12:00pm 36.6 31.6 1.4 11 18.3 ESE 17 39 9 21 1014.5 1010.8 0.0
10/11:30am 36.4 32.0 4.6 14 17.4 ENE 17 28 9 15 1015.0 1011.2 0.0
10/11:00am 36.1 32.8 4.4 14 17.3 ENE 11 20 6 11 1015.5 1011.8 0.0
10/10:30am 35.1 30.9 5.5 16 16.3 ENE 17 24 9 13 1015.7 1012.0 0.0
10/10:00am 34.7 30.4 5.2 16 16.1 E 17 26 9 14 1015.9 1012.2 0.0
10/09:30am 33.5 29.9 5.1 17 15.4 ENE 13 20 7 11 1016.0 1012.3 0.0
10/09:00am 32.1 28.8 6.3 20 14.2 SE 13 19 7 10 1015.9 1012.2 0.0
10/08:30am 30.9 27.3 6.7 22 13.3 SE 15 20 8 11 1015.8 1012.1 0.0
10/08:00am 29.3 25.9 6.0 23 12.6 SSE 13 19 7 10 1015.7 1012.0 0.0
10/07:30am 25.2 24.0 8.2 34 9.3 S 4 9 2 5 1015.5 1011.8 0.0
10/07:00am 22.4 20.2 7.8 39 7.8 SSW 9 11 5 6 1015.2 1011.4 0.0
10/06:30am 21.8 19.5 7.6 40 7.5 S 9 15 5 8 1014.9 1011.1 0.0
10/06:00am 22.6 18.7 7.2 37 8.2 S 17 19 9 10 1014.3 1010.6 0.0
10/05:30am 22.2 19.6 7.6 39 7.8 S 11 15 6 8 1013.9 1010.2 0.0
10/05:00am 22.5 19.0 7.1 37 8.1 SSW 15 19 8 10 1013.7 1010.0 0.0
10/04:30am 22.8 19.3 7.0 36 8.4 SSW 15 19 8 10 1013.5 1009.7 0.0
10/04:00am 23.5 19.6 7.2 35 8.7 SSW 17 20 9 11 1013.3 1009.5 0.0
10/03:30am 22.9 19.8 7.4 37 8.3 SSW 13 15 7 8 1013.3 1009.5 0.0
10/03:00am 23.2 20.6 7.7 37 8.3 SSW 11 13 6 7 1013.5 1009.7 0.0
10/02:30am 23.8 21.2 7.8 36 8.6 SSW 11 15 6 8 1013.5 1009.7 0.0
10/02:00am 24.3 20.8 7.4 34 9.1 SSW 15 17 8 9 1013.6 1009.9 0.0
10/01:30am 25.2 23.4 7.8 33 9.5 S 7 11 4 6 1013.6 1009.9 0.0
10/01:00am 25.5 22.6 6.7 30 10.0 SSE 11 13 6 7 1013.8 1010.1 0.0
10/12:30am 27.2 24.7 6.6 27 11.1 SSE 9 13 5 7 1014.1 1010.4 0.0
10/12:00am 27.1 24.6 6.5 27 11.1 SSE 9 9 5 5 1014.3 1010.6 0.0
 
Date/Time
CST
Temp
°C
App
Temp
°C
Dew
Point
Rel
Hum
%
Delta-T
°C
Wind Press
QNH
hPa
Press
MSL
hPa
Rain
since 9 am
mm
Dir
 
Spd
km/h
Gust
km/h
Spd
kts
Gust
kts
09/11:30pm 28.6 25.9 5.5 23 12.3 ESE 9 13 5 7 1014.4 1010.7 0.0
09/11:00pm 28.9 25.8 5.7 23 12.4 SE 11 15 6 8 1014.5 1010.8 0.0
09/10:30pm 29.7 26.3 5.7 22 12.9 SE 13 15 7 8 1014.3 1010.6 0.0
09/10:00pm 30.8 26.9 5.3 20 13.7 SE 15 17 8 9 1014.2 1010.5 0.0
09/09:30pm 31.1 27.5 4.8 19 14.0 SE 13 15 7 8 1014.1 1010.4 0.0
09/09:00pm 31.5 28.3 5.1 19 14.2 SSE 11 13 6 7 1013.9 1010.2 0.0
09/08:30pm 33.1 29.3 3.9 16 15.5 SE 13 15 7 8 1013.6 1009.9 0.0
09/08:00pm 34.2 30.0 3.9 15 16.2 SE 15 20 8 11 1013.4 1009.6 0.0
09/07:30pm 35.5 30.4 2.9 13 17.3 SSE 19 26 10 14 1013.1 1009.3 0.0
09/07:00pm 36.7 30.4 1.5 11 18.4 SE 24 35 13 19 1012.8 1009.0 0.0
09/06:30pm 37.3 30.7 1.9 11 18.7 SE 26 35 14 19 1012.7 1008.9 0.0
09/06:00pm 37.7 31.1 2.2 11 18.9 ESE 26 37 14 20 1012.5 1008.7 0.0
09/05:30pm 37.6 32.1 2.1 11 18.8 SSE 20 35 11 19 1012.3 1008.6 0.0
09/05:00pm 37.9 31.1 1.0 10 19.2 ESE 26 44 14 24 1012.3 1008.6 0.0
09/04:30pm 37.5 30.9 2.1 11 18.8 SE 26 35 14 19 1012.7 1008.9 0.0
09/04:00pm 37.0 30.3 1.7 11 18.5 ESE 26 46 14 25 1012.8 1009.0 0.0
09/03:30pm 38.3 32.2 2.7 11 19.1 SE 24 35 13 19 1013.0 1009.2 0.0
09/03:00pm 37.8 31.5 3.5 12 18.6 ESE 26 46 14 25 1013.2 1009.4 0.0
09/02:56pm 38.1 31.4 3.8 12 18.7 SE 28 46 15 25 1013.4 1009.6 0.0
09/02:30pm 37.5 31.5 3.3 12 18.4 SE 24 39 13 21 1013.8 1010.1 0.0
09/02:09pm 36.8 29.6 2.8 12 18.1 SE 30 46 16 25 1014.2 1010.5 0.0
09/02:00pm 37.5 31.5 3.3 12 18.4 SE 24 46 13 25 1014.3 1010.6 0.0
09/01:30pm 37.4 31.6 4.4 13 18.1 E 24 37 13 20 1014.9 1011.1 0.0
09/01:12pm 37.3 31.5 4.3 13 18.0 E 24 44 13 24 1015.0 1011.2 0.0
09/01:00pm 36.1 30.1 3.3 13 17.6 ESE 24 41 13 22 1015.3 1011.5 0.0
09/12:30pm 35.9 30.1 4.2 14 17.2 SE 24 41 13 22 1015.9 1012.2 0.0
09/12:00pm 35.9 30.3 5.2 15 16.9 ESE 24 37 13 20 1016.2 1012.5 0.0
09/11:30am 35.6 30.5 5.9 16 16.5 SE 22 39 12 21 1016.6 1012.9 0.0
09/11:00am 34.8 29.8 4.4 15 16.4 ESE 20 35 11 19 1017.2 1013.4 0.0
09/10:30am 34.2 28.9 4.8 16 15.9 ESE 22 33 12 18 1017.5 1013.8 0.0
09/10:00am 33.6 27.4 4.3 16 15.7 ESE 26 37 14 20 1017.7 1014.0 0.0
09/09:30am 32.7 26.9 4.5 17 15.1 ESE 24 33 13 18 1017.7 1014.0 0.0
09/09:00am 31.6 25.4 4.4 18 14.4 ESE 26 39 14 21 1017.8 1014.1 0.0
09/08:30am 29.8 23.6 4.4 20 13.3 SE 26 41 14 22 1017.8 1014.1 0.0
09/08:00am 28.5 22.3 4.1 21 12.7 SE 26 35 14 19 1017.7 1014.0 0.0
09/07:30am 25.7 22.4 6.3 29 10.3 S 13 19 7 10 1017.6 1013.9 0.0
09/07:00am 23.2 19.5 6.1 33 8.9 SSW 15 17 8 9 1017.2 1013.4 0.0
09/06:30am 22.6 19.5 5.5 33 8.8 S 11 13 6 7 1016.8 1013.0 0.0
09/06:00am 24.7 21.1 5.0 28 10.2 SSE 13 17 7 9 1016.3 1012.6 0.0
09/05:30am 24.8 21.6 5.1 28 10.2 SSE 11 13 6 7 1016.1 1012.4 0.0
09/05:00am 23.4 20.6 5.3 31 9.3 S 9 9 5 5 1015.8 1012.1 0.0
09/04:30am 25.0 21.3 4.7 27 10.4 SSE 13 17 7 9 1015.7 1012.0 0.0
09/04:00am 25.8 21.8 4.9 26 10.8 SE 15 20 8 11 1015.5 1011.8 0.0
09/03:30am 26.2 22.3 5.2 26 11.0 SSE 15 20 8 11 1015.5 1011.8 0.0
09/03:00am 25.0 21.6 5.7 29 10.1 SE 13 15 7 8 1015.4 1011.6 0.0
09/02:30am 25.0 22.4 6.2 30 9.9 SE 9 13 5 7 1015.3 1011.5 0.0
09/02:09am 25.7 23.0 5.8 28 10.5 SE 9 11 5 6 1015.5 1011.8 0.0
09/02:00am 25.7 23.0 5.8 28 10.5 SE 9 11 5 6 1015.6 1011.9 0.0
09/01:50am 26.3 23.1 5.3 26 11.0 SE 11 13 6 7 1015.5 1011.8 0.0
09/01:30am 26.7 23.6 5.6 26 11.1 SE 11 15 6 8 1015.6 1011.9 0.0
09/01:00am 26.7 23.7 6.2 27 10.9 SE 11 13 6 7 1015.8 1012.1 0.0
09/12:30am 27.6 24.6 5.8 25 11.6 SE 11 13 6 7 1015.9 1012.2 0.0
09/12:00am 28.3 25.3 5.8 24 12.0 SE 11 13 6 7 1016.1 1012.4 0.0
 
Date/Time
CST
Temp
°C
App
Temp
°C
Dew
Point
Rel
Hum
%
Delta-T
°C
Wind Press
QNH
hPa
Press
MSL
hPa
Rain
since 9 am
mm
Dir
 
Spd
km/h
Gust
km/h
Spd
kts
Gust
kts
08/11:30pm 29.3 25.8 5.4 22 12.7 SE 13 15 7 8 1016.2 1012.5 0.0
08/11:00pm 29.8 26.6 5.1 21 13.1 SE 11 19 6 10 1016.2 1012.5 0.0
08/10:30pm 30.7 26.6 4.4 19 13.9 SE 15 19 8 10 1016.0 1012.3 0.0
08/10:00pm 30.6 27.7 4.4 19 13.8 SE 9 13 5 7 1015.8 1012.1 0.0
08/09:30pm 31.2 27.8 4.1 18 14.3 SE 11 15 6 8 1015.5 1011.8 0.0
08/09:00pm 32.0 29.0 3.9 17 14.8 E 9 15 5 8 1015.4 1011.6 0.0
08/08:30pm 32.8 29.2 2.8 15 15.6 SE 11 15 6 8 1015.1 1011.3 0.0
08/08:00pm 34.2 29.1 2.9 14 16.5 SE 19 28 10 15 1014.7 1010.9 0.0
08/07:30pm 35.1 29.4 2.6 13 17.1 SE 22 37 12 20 1014.3 1010.6 0.0
08/07:00pm 36.2 29.6 2.3 12 17.9 SE 26 35 14 19 1013.9 1010.2 0.0
08/06:30pm 36.4 30.6 2.5 12 18.0 ESE 22 35 12 19 1013.6 1009.9 0.0
08/06:00pm 36.6 31.3 4.8 14 17.5 ESE 22 33 12 18 1013.6 1009.9 0.0
08/05:30pm 37.0 30.0 4.0 13 17.9 ESE 30 41 16 22 1013.5 1009.7 0.0
08/05:00pm 37.5 33.3 5.5 14 17.8 ESE 17 30 9 16 1013.6 1009.9 0.0
08/04:30pm 35.8 29.0 5.1 15 16.9 SE 30 44 16 24 1013.8 1010.1 0.0
08/04:00pm 36.7 32.0 5.9 15 17.2 SE 20 35 11 19 1013.9 1010.2 0.0
08/03:30pm 37.0 32.1 5.1 14 17.6 SE 20 35 11 19 1014.2 1010.5 0.0
08/03:00pm 36.1 30.7 6.3 16 16.7 ESE 24 39 13 21 1014.5 1010.8 0.0
08/02:30pm 37.5 31.8 6.5 15 17.5 ESE 26 39 14 21 1015.1 1011.3 0.0
08/02:00pm 36.6 30.1 6.7 16 16.9 ESE 30 44 16 24 1015.5 1011.8 0.0
08/01:59pm 36.2 29.7 6.4 16 16.7 ESE 30 48 16 26 1015.5 1011.8 0.0
08/01:30pm 35.5 29.2 5.8 16 16.5 SE 28 43 15 23 1016.0 1012.3 0.0
08/01:00pm 35.3 30.1 7.4 18 15.8 ESE 24 46 13 25 1016.3 1012.6 0.0
08/12:30pm 34.6 29.5 7.6 19 15.3 ESE 24 43 13 23 1016.9 1013.1 0.0
08/12:00pm 34.4 28.1 7.5 19 15.2 E 30 48 16 26 1017.5 1013.8 0.0
08/11:30am 34.3 28.0 7.4 19 15.2 E 30 52 16 28 1018.0 1014.3 0.0
08/11:11am 33.5 27.0 6.7 19 14.9 ESE 30 48 16 26 1018.2 1014.5 0.0
08/11:00am 33.9 27.0 6.3 18 15.3 ESE 32 44 17 24 1018.3 1014.6 0.0
08/10:30am 32.9 26.8 8.4 22 14.0 SE 30 41 16 22 1018.5 1014.8 0.0
08/10:00am 32.9 28.1 9.0 23 13.8 E 24 33 13 18 1018.7 1015.0 0.0
08/09:30am 31.5 27.1 9.1 25 12.8 E 22 32 12 17 1018.7 1015.0 0.0
08/09:00am 30.6 27.3 9.5 27 12.1 ESE 17 24 9 13 1019.0 1015.2 -
08/08:30am 29.4 25.7 9.5 29 11.3 SE 19 26 10 14 1019.0 1015.2 0.0
08/08:00am 28.2 24.4 9.0 30 10.8 SE 19 24 10 13 1018.6 1014.9 0.0
08/07:30am 26.6 23.8 8.6 32 10.0 SSE 13 20 7 11 1018.5 1014.8 0.0
08/07:00am 24.9 21.7 8.4 35 9.0 SSE 15 20 8 11 1018.4 1014.7 0.0
08/06:30am 24.2 20.7 7.4 34 9.0 SSE 15 19 8 10 1017.8 1014.1 0.0
08/06:00am 24.5 21.4 7.2 33 9.3 SE 13 17 7 9 1017.4 1013.7 0.0
08/05:30am 24.6 21.0 6.8 32 9.5 SE 15 20 8 11 1017.2 1013.4 0.0
08/05:00am 24.9 21.3 6.6 31 9.7 SE 15 19 8 10 1016.9 1013.1 0.0
08/04:30am 25.1 21.8 6.3 30 9.9 SE 13 15 7 8 1016.8 1013.0 0.0
08/04:00am 25.6 22.2 5.8 28 10.4 SE 13 19 7 10 1016.5 1012.8 0.0
08/03:30am 26.6 21.9 5.0 25 11.3 SE 19 24 10 13 1016.3 1012.6 0.0
08/03:00am 26.2 21.8 4.6 25 11.2 SSE 17 24 9 13 1016.1 1012.4 0.0
08/02:30am 24.3 20.8 5.6 30 9.7 SSW 13 15 7 8 1016.0 1012.3 0.0
08/02:00am 24.7 21.5 5.0 28 10.2 SSW 11 13 6 7 1016.0 1012.3 0.0
08/01:30am 27.2 23.4 3.7 22 12.0 SSE 13 17 7 9 1016.1 1012.4 0.0
08/01:00am 27.4 23.6 3.8 22 12.1 SSE 13 19 7 10 1016.3 1012.6 0.0
08/12:30am 27.9 23.7 3.6 21 12.5 SE 15 22 8 12 1016.3 1012.6 0.0
08/12:00am 27.9 23.7 3.6 21 12.5 SE 15 19 8 10 1016.5 1012.8 0.0
 
Date/Time
CST
Temp
°C
App
Temp
°C
Dew
Point
Rel
Hum
%
Delta-T
°C
Wind Press
QNH
hPa
Press
MSL
hPa
Rain
since 9 am
mm
Dir
 
Spd
km/h
Gust
km/h
Spd
kts
Gust
kts
07/11:30pm 27.9 24.0 3.6 21 12.5 SSE 13 19 7 10 1016.5 1012.8 0.0
07/11:00pm 28.0 24.4 3.0 20 12.7 SE 11 15 6 8 1016.4 1012.7 0.0
07/10:30pm 28.0 24.4 3.0 20 12.7 SSE 11 15 6 8 1016.4 1012.7 0.0
07/10:00pm 29.2 25.4 1.7 17 13.8 SSE 11 13 6 7 1016.1 1012.4 0.0
07/09:30pm 30.2 26.0 1.6 16 14.4 SE 13 17 7 9 1015.6 1011.9 0.0
07/09:00pm 31.2 27.2 0.6 14 15.2 SE 11 15 6 8 1015.4 1011.6 0.0

Other Formats:

Comma delimited format used in spreadsheet applications
http://www.bom.gov.au/fwo/IDD60801/IDD60801.94462.axf

JavaScript Object Notation format (JSON) in row-major order
http://www.bom.gov.au/fwo/IDD60801/IDD60801.94462.json